Smith River, California
Current Conditions -  °F | °C
As of 2:10 PM on Thursday 23 Oct 2014 (Local Time) from KCEC Reporting Station
Overcast Overcast  
Wind Chill: 60°   Ceiling: 1400
Heat Index: 60°   Visibility: 10mi
Dew Point: 58°   Wind: 9mph
Humidity: 93%   Direction: 170°S
Pressure: 30.02"   Gusts: NA
Location:  41.93°N, 124.15°W
Report Text: KCEC 232110Z AUTO 17008KT 10SM BKN014 BKN043 OVC075 16/14 A3002 RMK AO2 T01560144
Loading
Personal Weather Stations






























Interactive Weather Map
Tropical Storm Tracking
New forecast layout! Learn more

10-Day Weather Forecast

Advertisements
Track Severe Weather on mobile